Terminal Aerodrome Forecast
Issued by NWS

Home | Current Version | Previous Version | Text Only | Print | Product List | Glossary On
Versions: 1 2 3 4 5 6 7 8 9 10 11 12 13 14 15 16 17 18 19 20
000
FTUS46 KLOX 312349
TAFOXR
TAF
KOXR 312349Z 0100/0124 26010KT P6SM FEW013
     FM010400 28005KT 6SM BR BKN008
     FM010700 VRB04KT P6SM OVC012
     FM011100 VRB03KT P6SM OVC017
     FM011600 25006KT P6SM BKN022
     FM012000 25010KT P6SM SCT022 SCT250=

USA.gov is the U.S. government's official web portal to all federal, state and local government web resources and services.